createdAt,value
2019-02-28T00:03:34.125Z,9.55
2019-02-28T00:08:38.773Z,9.48
2019-02-28T00:13:43.000Z,9.46
2019-02-28T00:18:49.964Z,9.41
2019-02-28T00:23:56.717Z,9.39
2019-02-28T00:29:00.519Z,9.42
2019-02-28T00:34:05.620Z,9.43
2019-02-28T00:39:09.903Z,9.45
2019-02-28T00:44:14.137Z,9.63
2019-02-28T00:49:18.392Z,9.68
2019-02-28T00:54:22.607Z,9.88
2019-02-28T00:59:26.846Z,9.83
2019-02-28T01:04:31.068Z,9.92
2019-02-28T01:09:35.305Z,9.95
2019-02-28T01:14:39.528Z,9.99
2019-02-28T01:19:43.741Z,9.98
2019-02-28T01:24:47.968Z,9.99
2019-02-28T01:29:52.188Z,10.07
2019-02-28T01:34:56.410Z,9.99
2019-02-28T01:40:01.145Z,10.02
2019-02-28T01:45:09.956Z,9.99
2019-02-28T01:50:13.007Z,10.04
2019-02-28T01:55:17.219Z,10.05
2019-02-28T02:00:23.791Z,10.21
2019-02-28T02:05:27.871Z,10.10
2019-02-28T02:10:32.199Z,10.02
2019-02-28T02:15:36.417Z,9.92
2019-02-28T02:20:40.648Z,9.92
2019-02-28T02:25:44.886Z,9.82
2019-02-28T02:30:50.862Z,9.72
2019-02-28T02:35:55.069Z,9.67
2019-02-28T02:41:00.894Z,9.56
2019-02-28T02:46:05.396Z,9.52
2019-02-28T02:51:11.342Z,9.35
2019-02-28T02:56:15.558Z,9.27
2019-02-28T03:01:23.139Z,9.23
2019-02-28T03:06:25.736Z,9.22
2019-02-28T03:11:30.057Z,9.09
2019-02-28T03:16:34.661Z,9.01
2019-02-28T03:21:39.013Z,8.99
2019-02-28T03:26:43.474Z,8.91
2019-02-28T03:31:55.404Z,8.89
2019-02-28T03:36:56.902Z,8.80
2019-02-28T03:41:59.945Z,8.74
2019-02-28T03:47:04.546Z,8.61
2019-02-28T03:52:08.762Z,8.65
2019-02-28T03:57:13.122Z,8.64
2019-02-28T04:02:22.132Z,8.50
2019-02-28T04:07:23.743Z,8.46
2019-02-28T04:12:28.196Z,8.46
2019-02-28T04:17:32.468Z,8.52
2019-02-28T04:22:36.861Z,8.48
2019-02-28T04:27:41.861Z,8.44
2019-02-28T04:32:46.312Z,8.41
2019-02-28T04:37:50.562Z,8.31
2019-02-28T04:42:54.766Z,8.32
2019-02-28T04:47:58.984Z,8.26
2019-02-28T04:53:03.210Z,8.20
2019-02-28T04:58:07.427Z,8.19
2019-02-28T05:03:11.829Z,8.09
2019-02-28T05:08:16.060Z,8.12
2019-02-28T05:13:20.296Z,8.04
2019-02-28T05:18:27.598Z,7.89
2019-02-28T05:23:35.803Z,7.91
2019-02-28T05:28:40.323Z,7.87
2019-02-28T05:33:42.981Z,7.86
2019-02-28T05:38:47.215Z,7.86
2019-02-28T05:43:51.422Z,7.83
2019-02-28T05:48:55.679Z,7.73
2019-02-28T05:54:00.141Z,7.74
2019-02-28T05:59:04.427Z,7.74
2019-02-28T06:04:08.757Z,7.66
2019-02-28T06:09:13.726Z,7.62
2019-02-28T06:14:19.012Z,7.60
2019-02-28T06:19:23.259Z,7.60
2019-02-28T06:24:27.515Z,7.62
2019-02-28T06:29:32.600Z,7.56
2019-02-28T06:34:42.289Z,7.55
2019-02-28T06:39:45.584Z,7.48
2019-02-28T06:44:49.812Z,7.48
2019-02-28T06:49:54.495Z,7.47
2019-02-28T06:54:58.781Z,7.53
2019-02-28T07:00:03.071Z,7.57
2019-02-28T07:05:07.456Z,7.51
2019-02-28T07:10:12.707Z,7.66
2019-02-28T07:15:23.526Z,7.52
2019-02-28T07:20:23.645Z,7.59
2019-02-28T07:25:27.877Z,7.66
2019-02-28T07:30:32.107Z,7.83
2019-02-28T07:35:36.945Z,7.81
2019-02-28T07:40:41.465Z,7.88
2019-02-28T07:45:45.709Z,7.90
2019-02-28T07:50:49.952Z,7.91
2019-02-28T07:55:54.181Z,7.99
2019-02-28T08:00:58.431Z,8.18
2019-02-28T08:06:04.756Z,8.18
2019-02-28T08:11:08.624Z,8.14
2019-02-28T08:16:12.859Z,8.43
2019-02-28T08:21:17.083Z,8.33
2019-02-28T08:26:21.297Z,8.32
2019-02-28T08:31:28.331Z,8.71
2019-02-28T08:36:31.475Z,8.63
2019-02-28T08:41:35.738Z,8.92
2019-02-28T08:46:39.981Z,8.98
2019-02-28T08:51:44.200Z,8.86
2019-02-28T08:56:49.552Z,8.89
2019-02-28T09:01:54.373Z,8.87
2019-02-28T09:06:58.606Z,9.07
2019-02-28T09:12:02.874Z,9.21
2019-02-28T09:17:07.199Z,9.37
2019-02-28T09:22:11.436Z,9.30
2019-02-28T09:27:15.673Z,9.48
2019-02-28T09:32:19.923Z,9.52
2019-02-28T09:37:24.154Z,9.57
2019-02-28T09:42:28.406Z,9.57
2019-02-28T09:47:32.628Z,9.81
2019-02-28T09:52:41.283Z,9.90
2019-02-28T09:57:43.920Z,10.17
2019-02-28T10:02:48.288Z,10.47
2019-02-28T10:07:52.814Z,10.92
2019-02-28T10:12:57.061Z,11.18
2019-02-28T10:18:04.380Z,11.18
2019-02-28T10:23:07.261Z,11.33
2019-02-28T10:28:11.490Z,11.86
2019-02-28T10:33:17.283Z,12.13
2019-02-28T10:38:21.700Z,11.89
2019-02-28T10:43:26.077Z,12.39
2019-02-28T10:48:30.513Z,12.16
2019-02-28T10:53:36.243Z,13.22
2019-02-28T10:58:41.032Z,13.98
2019-02-28T11:03:46.932Z,13.70
2019-02-28T11:08:51.178Z,13.53
2019-02-28T11:13:55.580Z,13.94
2019-02-28T11:18:59.867Z,14.84
2019-02-28T11:24:04.105Z,15.60
2019-02-28T11:29:08.342Z,14.26
2019-02-28T11:34:15.018Z,13.68
2019-02-28T11:39:21.846Z,14.31
2019-02-28T11:44:26.084Z,13.72
2019-02-28T11:49:30.313Z,14.75
2019-02-28T11:54:34.547Z,14.65
2019-02-28T11:59:38.769Z,15.56
2019-02-28T12:04:43.013Z,16.18
2019-02-28T12:09:47.232Z,14.13
2019-02-28T12:14:51.484Z,14.13
2019-02-28T12:19:55.712Z,15.01
2019-02-28T12:24:59.957Z,14.91
2019-02-28T12:30:04.803Z,14.96
2019-02-28T12:35:09.269Z,14.23
2019-02-28T12:40:16.043Z,15.83
2019-02-28T12:45:26.137Z,16.87
2019-02-28T12:50:30.462Z,16.87
2019-02-28T12:55:35.571Z,16.50
2019-02-28T13:00:40.875Z,14.46
2019-02-28T13:05:48.015Z,14.36
2019-02-28T13:10:51.071Z,14.59
2019-02-28T13:15:55.305Z,14.58
2019-02-28T13:20:59.633Z,16.05
2019-02-28T13:26:03.887Z,14.55
2019-02-28T13:31:08.204Z,14.42
2019-02-28T13:36:13.049Z,15.16
2019-02-28T13:41:18.365Z,14.68
2019-02-28T13:46:23.308Z,14.54
2019-02-28T13:51:27.541Z,14.25
2019-02-28T13:56:32.897Z,13.73
2019-02-28T14:01:37.740Z,13.26
2019-02-28T14:06:41.977Z,14.11
2019-02-28T14:11:46.513Z,13.79
2019-02-28T14:16:50.761Z,13.35
2019-02-28T14:21:55.003Z,13.64
2019-02-28T14:26:59.287Z,12.86
2019-02-28T14:32:04.635Z,12.50
2019-02-28T14:37:09.477Z,12.65
2019-02-28T14:42:13.820Z,12.33
2019-02-28T14:47:18.070Z,12.03
2019-02-28T14:52:22.316Z,12.47
2019-02-28T14:57:27.511Z,12.32
2019-02-28T15:02:31.734Z,12.06
2019-02-28T15:07:38.712Z,12.08
2019-02-28T15:12:41.955Z,12.03
2019-02-28T15:17:46.508Z,11.84
2019-02-28T15:22:52.530Z,11.76
2019-02-28T15:27:57.374Z,11.90
2019-02-28T15:33:01.708Z,11.67
2019-02-28T15:38:09.338Z,11.54
2019-02-28T15:43:16.966Z,10.76
2019-02-28T15:48:17.889Z,11.06
2019-02-28T15:53:22.132Z,11.01
2019-02-28T15:58:26.367Z,10.85
2019-02-28T16:03:30.600Z,10.91
2019-02-28T16:08:34.841Z,10.80
2019-02-28T16:18:48.767Z,10.60
2019-02-28T16:23:53.192Z,10.59
2019-02-28T16:28:57.467Z,10.44
2019-02-28T16:34:08.276Z,10.38
2019-02-28T16:39:08.366Z,10.03
2019-02-28T16:44:12.635Z,9.87
2019-02-28T16:49:16.879Z,9.51
2019-02-28T16:54:22.561Z,9.32
2019-02-28T16:59:28.458Z,9.29
2019-02-28T17:04:33.108Z,9.27
2019-02-28T17:09:41.980Z,9.13
2019-02-28T17:14:48.288Z,9.09
2019-02-28T17:19:52.564Z,8.85
2019-02-28T17:24:56.883Z,8.83
2019-02-28T17:30:36.256Z,8.53
2019-02-28T17:35:41.221Z,8.46
2019-02-28T17:40:45.462Z,8.31
2019-02-28T17:45:50.597Z,8.00
2019-02-28T17:51:55.498Z,8.25
2019-02-28T17:57:27.937Z,7.85
2019-02-28T18:02:59.213Z,7.75
2019-02-28T18:08:12.915Z,7.77
2019-02-28T18:13:29.288Z,7.90
2019-02-28T18:18:54.997Z,8.13
2019-02-28T18:24:13.318Z,8.17
2019-02-28T18:29:35.431Z,7.85
2019-02-28T18:34:39.688Z,7.63
2019-02-28T18:39:44.621Z,7.55
2019-02-28T18:44:49.923Z,7.56
2019-02-28T18:49:54.845Z,7.60
2019-02-28T18:55:05.753Z,7.48
2019-02-28T19:00:06.072Z,7.39
2019-02-28T19:05:10.418Z,6.93
2019-02-28T19:10:14.682Z,7.10
2019-02-28T19:15:19.406Z,6.89
2019-02-28T19:20:23.855Z,7.04
2019-02-28T19:25:28.123Z,7.01
2019-02-28T19:30:32.364Z,6.97
2019-02-28T19:35:36.603Z,6.99
2019-02-28T19:40:40.852Z,6.76
2019-02-28T19:45:45.943Z,6.94
2019-02-28T19:50:50.237Z,6.80
2019-02-28T19:55:54.510Z,6.89
2019-02-28T20:00:58.809Z,7.01
2019-02-28T20:06:03.270Z,6.82
2019-02-28T20:11:07.523Z,6.75
2019-02-28T20:16:11.861Z,6.78
2019-02-28T20:21:16.182Z,6.99
2019-02-28T20:26:20.454Z,6.95
2019-02-28T20:31:24.999Z,6.67
2019-02-28T20:36:29.336Z,6.82
2019-02-28T20:41:33.585Z,6.69
2019-02-28T20:46:37.829Z,6.61
2019-02-28T20:51:42.116Z,6.47
2019-02-28T20:56:47.134Z,6.55
2019-02-28T21:01:51.381Z,6.75
2019-02-28T21:06:55.640Z,6.58
2019-02-28T21:11:59.896Z,6.47
2019-02-28T21:17:04.136Z,6.46
2019-02-28T21:22:11.742Z,6.46
2019-02-28T21:27:15.963Z,6.46
2019-02-28T21:32:20.202Z,6.52
2019-02-28T21:37:24.453Z,6.68
2019-02-28T21:42:28.719Z,6.57
2019-02-28T21:47:32.975Z,6.24
2019-02-28T21:52:37.231Z,6.39
2019-02-28T21:57:41.479Z,6.64
2019-02-28T22:02:45.720Z,6.40
2019-02-28T22:07:49.951Z,6.47
2019-02-28T22:12:54.185Z,6.68
2019-02-28T22:17:58.579Z,6.65
2019-02-28T22:23:02.814Z,6.37
2019-02-28T22:28:07.040Z,6.58
2019-02-28T22:33:17.201Z,6.53
2019-02-28T22:38:21.414Z,6.71
2019-02-28T22:43:25.655Z,6.49
2019-02-28T22:48:29.880Z,6.66
2019-02-28T22:53:34.116Z,6.56
2019-02-28T22:58:38.359Z,6.30
2019-02-28T23:03:42.787Z,6.31
2019-02-28T23:08:47.011Z,6.32
2019-02-28T23:13:51.246Z,6.34
2019-02-28T23:18:55.478Z,6.45
2019-02-28T23:23:59.707Z,6.63
2019-02-28T23:29:17.618Z,6.60
2019-02-28T23:34:37.570Z,6.32
2019-02-28T23:39:41.808Z,6.29
2019-02-28T23:44:46.042Z,6.03
2019-02-28T23:49:50.273Z,6.13
2019-02-28T23:54:54.507Z,6.32
2019-02-28T23:59:58.780Z,6.40
